createdAt,value
2023-02-23T00:01:18.173Z,51.10
2023-02-23T00:03:47.019Z,50.60
2023-02-23T00:06:15.068Z,51.20
2023-02-23T00:08:43.120Z,51.10
2023-02-23T00:11:12.828Z,49.80
2023-02-23T00:13:41.679Z,50.00
2023-02-23T00:16:12.579Z,49.70
2023-02-23T00:18:48.243Z,49.60
2023-02-23T00:21:17.150Z,49.90
2023-02-23T00:23:48.501Z,49.80
2023-02-23T00:26:16.512Z,49.80
2023-02-23T00:28:44.612Z,50.00
2023-02-23T00:31:13.299Z,50.00
2023-02-23T00:33:42.800Z,51.40
2023-02-23T00:36:11.912Z,51.50
2023-02-23T00:38:40.183Z,52.20
2023-02-23T00:41:08.898Z,52.40
2023-02-23T00:43:38.740Z,51.80
2023-02-23T00:46:07.393Z,52.20
2023-02-23T00:48:36.003Z,51.90
2023-02-23T00:51:05.964Z,51.80
2023-02-23T00:53:34.590Z,51.60
2023-02-23T00:56:04.802Z,51.50
2023-02-23T00:58:33.167Z,52.00
2023-02-23T01:01:01.266Z,52.70
2023-02-23T01:03:29.748Z,52.30
2023-02-23T01:06:00.401Z,52.40
2023-02-23T01:08:30.364Z,52.20
2023-02-23T01:10:59.093Z,53.00
2023-02-23T01:13:27.965Z,53.50
2023-02-23T01:15:56.073Z,54.20
2023-02-23T01:18:26.811Z,55.10
2023-02-23T01:20:56.066Z,55.20
2023-02-23T01:23:24.055Z,54.90
2023-02-23T01:25:53.735Z,55.00
2023-02-23T01:28:21.719Z,55.20
2023-02-23T01:30:49.877Z,55.90
2023-02-23T01:33:17.878Z,56.20
2023-02-23T01:35:45.897Z,56.60
2023-02-23T01:38:14.163Z,57.30
2023-02-23T01:40:43.963Z,57.80
2023-02-23T01:43:14.279Z,58.80
2023-02-23T01:45:43.493Z,59.30
2023-02-23T01:48:13.554Z,59.40
2023-02-23T01:50:45.053Z,59.40
2023-02-23T01:53:14.359Z,59.40
2023-02-23T01:55:42.957Z,59.50
2023-02-23T01:58:15.446Z,58.90
2023-02-23T02:00:47.673Z,58.30
2023-02-23T02:03:19.956Z,58.60
2023-02-23T02:05:49.445Z,59.40
2023-02-23T02:08:19.107Z,59.30
2023-02-23T02:10:47.765Z,59.50
2023-02-23T02:13:21.605Z,59.50
2023-02-23T02:16:07.083Z,59.50
2023-02-23T02:18:38.871Z,59.50
2023-02-23T02:21:25.060Z,59.50
2023-02-23T02:24:08.328Z,59.50
2023-02-23T02:26:43.539Z,59.50
2023-02-23T02:29:32.443Z,59.50
2023-02-23T02:32:21.782Z,60.10
2023-02-23T02:35:16.382Z,61.00
2023-02-23T02:38:04.374Z,60.40
2023-02-23T02:40:35.199Z,62.10
2023-02-23T02:43:11.258Z,62.90
2023-02-23T02:45:45.120Z,62.60
2023-02-23T02:48:26.670Z,62.40
2023-02-23T02:50:57.294Z,62.90
2023-02-23T02:53:29.444Z,62.70
2023-02-23T02:56:00.332Z,63.20
2023-02-23T02:58:28.815Z,63.90
2023-02-23T03:01:14.205Z,64.10
2023-02-23T03:04:01.129Z,63.90
2023-02-23T03:06:49.138Z,63.70
2023-02-23T03:09:42.476Z,63.60
2023-02-23T03:12:30.302Z,64.40
2023-02-23T03:15:20.480Z,64.10
2023-02-23T03:18:07.919Z,64.20
2023-02-23T03:20:58.107Z,65.00
2023-02-23T03:23:47.010Z,67.20
2023-02-23T03:26:42.969Z,68.80
2023-02-23T03:29:35.743Z,71.80
2023-02-23T03:32:30.043Z,73.30
2023-02-23T03:35:24.591Z,74.10
2023-02-23T03:38:15.933Z,74.70
2023-02-23T03:41:02.703Z,75.70
2023-02-23T03:43:55.516Z,76.10
2023-02-23T03:46:43.717Z,77.00
2023-02-23T03:49:31.790Z,78.20
2023-02-23T03:52:19.745Z,80.40
2023-02-23T03:55:07.928Z,83.50
2023-02-23T03:57:54.914Z,86.90
2023-02-23T04:00:44.260Z,88.70
2023-02-23T04:03:31.363Z,90.20
2023-02-23T04:06:17.614Z,90.70
2023-02-23T04:09:04.188Z,90.70
2023-02-23T04:11:56.079Z,91.20
2023-02-23T04:14:24.574Z,91.90
2023-02-23T04:16:53.710Z,92.50
2023-02-23T04:19:21.953Z,92.80
2023-02-23T04:21:50.428Z,92.90
2023-02-23T04:24:18.584Z,93.00
2023-02-23T04:26:46.486Z,93.20
2023-02-23T04:29:14.587Z,93.00
2023-02-23T04:31:42.754Z,92.40
2023-02-23T04:34:12.448Z,92.70
2023-02-23T04:36:40.959Z,92.50
2023-02-23T04:39:09.171Z,92.50
2023-02-23T04:41:37.359Z,91.70
2023-02-23T04:44:05.849Z,91.00
2023-02-23T04:46:34.037Z,90.40
2023-02-23T04:49:02.225Z,90.00
2023-02-23T04:51:33.899Z,88.90
2023-02-23T04:54:02.306Z,87.50
2023-02-23T04:56:30.977Z,87.50
2023-02-23T04:58:59.266Z,87.50
2023-02-23T05:01:28.937Z,87.50
2023-02-23T05:03:57.102Z,87.40
2023-02-23T05:06:25.231Z,87.40
2023-02-23T05:08:54.772Z,86.90
2023-02-23T05:11:23.054Z,86.20
2023-02-23T05:13:52.169Z,85.60
2023-02-23T05:16:20.342Z,85.30
2023-02-23T05:18:48.558Z,84.90
2023-02-23T05:21:17.260Z,83.80
2023-02-23T05:23:45.509Z,83.50
2023-02-23T05:26:15.268Z,83.80
2023-02-23T05:28:44.291Z,83.40
2023-02-23T05:31:13.122Z,83.10
2023-02-23T05:33:43.145Z,82.30
2023-02-23T05:36:12.264Z,82.00
2023-02-23T05:38:41.142Z,81.70
2023-02-23T05:41:10.047Z,81.80
2023-02-23T05:43:39.988Z,81.80
2023-02-23T05:46:08.835Z,82.30
2023-02-23T05:48:37.246Z,82.50
2023-02-23T05:51:06.692Z,82.20
2023-02-23T05:53:35.084Z,81.00
2023-02-23T05:56:04.009Z,80.90
2023-02-23T05:58:32.783Z,81.20
2023-02-23T06:01:02.630Z,81.80
2023-02-23T06:03:30.814Z,81.90
2023-02-23T06:06:00.290Z,82.30
2023-02-23T06:08:28.486Z,82.60
2023-02-23T06:10:58.361Z,82.90
2023-02-23T06:13:26.936Z,83.20
2023-02-23T06:15:55.246Z,83.40
2023-02-23T06:18:25.001Z,83.60
2023-02-23T06:20:54.859Z,83.60
2023-02-23T06:23:23.142Z,83.90
2023-02-23T06:25:51.395Z,84.60
2023-02-23T06:28:19.495Z,84.00
2023-02-23T06:30:48.887Z,84.20
2023-02-23T06:33:17.160Z,84.70
2023-02-23T06:35:46.797Z,84.70
2023-02-23T06:38:15.117Z,84.90
2023-02-23T06:40:44.116Z,85.10
2023-02-23T06:43:12.430Z,85.10
2023-02-23T06:45:40.882Z,85.00
2023-02-23T06:48:09.575Z,84.80
2023-02-23T06:50:38.188Z,84.40
2023-02-23T06:53:07.637Z,85.30
2023-02-23T06:55:35.948Z,84.70
2023-02-23T06:58:06.480Z,85.40
2023-02-23T07:00:34.717Z,85.70
2023-02-23T07:03:02.829Z,86.00
2023-02-23T07:05:30.970Z,87.10
2023-02-23T07:07:59.145Z,87.10
2023-02-23T07:10:28.688Z,87.80
2023-02-23T07:12:57.155Z,88.40
2023-02-23T07:15:25.398Z,88.30
2023-02-23T07:17:54.066Z,88.40
2023-02-23T07:20:22.458Z,89.00
2023-02-23T07:22:50.907Z,89.00
2023-02-23T07:25:19.971Z,89.10
2023-02-23T07:27:51.542Z,89.10
2023-02-23T07:30:24.773Z,89.00
2023-02-23T07:32:53.094Z,89.00
2023-02-23T07:35:21.623Z,89.70
2023-02-23T07:37:50.505Z,89.60
2023-02-23T07:40:20.320Z,90.00
2023-02-23T07:42:50.023Z,89.90
2023-02-23T07:45:18.469Z,90.10
2023-02-23T07:47:46.707Z,90.60
2023-02-23T07:50:15.664Z,90.60
2023-02-23T07:52:45.486Z,90.50
2023-02-23T07:55:13.978Z,90.60
2023-02-23T07:57:42.148Z,90.90
2023-02-23T08:00:12.980Z,90.80
2023-02-23T08:02:41.486Z,90.90
2023-02-23T08:05:09.951Z,91.10
2023-02-23T08:07:38.647Z,91.00
2023-02-23T08:10:07.775Z,91.10
2023-02-23T08:12:36.812Z,90.70
2023-02-23T08:15:08.306Z,91.00
2023-02-23T08:17:38.903Z,91.40
2023-02-23T08:20:09.213Z,91.90
2023-02-23T08:22:48.825Z,92.50
2023-02-23T08:25:18.749Z,92.10
2023-02-23T08:27:47.499Z,91.90
2023-02-23T08:30:16.691Z,91.60
2023-02-23T08:32:47.352Z,91.20
2023-02-23T08:35:16.270Z,91.20
2023-02-23T08:37:45.378Z,89.70
2023-02-23T08:40:15.690Z,89.30
2023-02-23T08:42:44.031Z,88.70
2023-02-23T08:45:13.250Z,88.40
2023-02-23T08:47:43.278Z,87.50
2023-02-23T08:50:14.654Z,87.00
2023-02-23T08:52:43.691Z,87.00
2023-02-23T08:55:13.861Z,87.00
2023-02-23T08:57:42.004Z,86.10
2023-02-23T09:00:16.789Z,86.10
2023-02-23T09:02:48.144Z,85.80
2023-02-23T09:05:18.293Z,83.60
2023-02-23T09:07:47.551Z,84.00
2023-02-23T09:10:17.029Z,85.70
2023-02-23T09:12:46.037Z,84.40
2023-02-23T09:15:14.277Z,84.80
2023-02-23T09:17:44.899Z,84.10
2023-02-23T09:20:15.797Z,83.00
2023-02-23T09:22:48.545Z,84.00
2023-02-23T09:25:19.287Z,84.00
2023-02-23T09:27:47.755Z,84.40
2023-02-23T09:30:17.767Z,85.50
2023-02-23T09:32:46.392Z,84.80
2023-02-23T09:35:18.111Z,83.80
2023-02-23T09:37:48.858Z,84.40
2023-02-23T09:40:20.308Z,83.50
2023-02-23T09:43:00.226Z,80.60
2023-02-23T09:45:39.430Z,81.90
2023-02-23T09:48:16.648Z,82.20
2023-02-23T09:50:48.934Z,81.60
2023-02-23T09:53:31.621Z,82.20
2023-02-23T09:56:07.178Z,82.40
2023-02-23T09:58:36.160Z,79.10
2023-02-23T10:01:36.149Z,76.20
2023-02-23T10:04:12.585Z,77.10
2023-02-23T10:06:43.370Z,77.40
2023-02-23T10:09:23.865Z,77.60
2023-02-23T10:12:03.248Z,77.10
2023-02-23T10:14:46.892Z,78.10
2023-02-23T10:17:26.664Z,79.30
2023-02-23T10:20:02.437Z,80.20
2023-02-23T10:22:33.791Z,78.50
2023-02-23T10:25:09.311Z,78.20
2023-02-23T10:27:41.988Z,79.10
2023-02-23T10:30:19.958Z,78.50
2023-02-23T10:32:55.189Z,78.00
2023-02-23T10:35:24.589Z,76.50
2023-02-23T10:37:55.287Z,76.70
2023-02-23T10:40:28.823Z,74.60
2023-02-23T10:42:58.452Z,74.70
2023-02-23T10:45:28.675Z,73.80
2023-02-23T10:48:01.570Z,75.00
2023-02-23T10:50:31.593Z,75.30
2023-02-23T10:53:01.500Z,75.40
2023-02-23T10:55:33.018Z,75.20
2023-02-23T10:58:16.860Z,72.40
2023-02-23T11:00:54.349Z,72.60
2023-02-23T11:03:27.693Z,71.90
2023-02-23T11:05:56.325Z,71.90
2023-02-23T11:08:31.658Z,70.50
2023-02-23T11:11:08.948Z,71.70
2023-02-23T11:13:40.409Z,69.10
2023-02-23T11:16:13.750Z,69.40
2023-02-23T11:18:54.835Z,69.50
2023-02-23T11:21:33.290Z,69.70
2023-02-23T11:24:11.420Z,70.60
2023-02-23T11:26:45.145Z,70.60
2023-02-23T11:29:23.370Z,71.40
2023-02-23T11:31:54.536Z,71.40
2023-02-23T11:34:29.468Z,70.50
2023-02-23T11:37:07.153Z,70.40
2023-02-23T11:39:35.764Z,69.80
2023-02-23T11:42:25.391Z,68.00
2023-02-23T11:45:03.849Z,69.70
2023-02-23T11:47:35.092Z,69.20
2023-02-23T11:50:05.638Z,70.00
2023-02-23T11:52:34.125Z,70.90
2023-02-23T11:55:07.045Z,70.70
2023-02-23T11:57:37.842Z,70.00
2023-02-23T12:00:15.281Z,71.50
2023-02-23T12:02:52.330Z,69.50
2023-02-23T12:05:25.219Z,69.40
2023-02-23T12:07:59.678Z,69.40
2023-02-23T12:10:32.275Z,68.40
2023-02-23T12:13:10.905Z,68.20
2023-02-23T12:15:46.972Z,68.20
2023-02-23T12:18:38.830Z,67.70
2023-02-23T12:21:20.566Z,68.00
2023-02-23T12:23:52.797Z,68.40
2023-02-23T12:26:23.181Z,67.70
2023-02-23T12:28:58.771Z,67.90
2023-02-23T12:31:32.243Z,70.30
2023-02-23T12:34:05.261Z,70.30
2023-02-23T12:36:39.229Z,69.50
2023-02-23T12:39:18.508Z,69.90
2023-02-23T12:41:49.880Z,69.10
2023-02-23T12:44:31.173Z,69.10
2023-02-23T12:47:05.925Z,69.70
2023-02-23T12:49:40.797Z,70.50
2023-02-23T12:52:14.743Z,70.70
2023-02-23T12:54:47.017Z,72.00
2023-02-23T12:57:28.156Z,72.30
2023-02-23T13:00:39.309Z,72.50
2023-02-23T13:03:46.427Z,71.00
2023-02-23T13:06:23.904Z,70.10
2023-02-23T13:09:06.018Z,69.00
2023-02-23T13:12:07.123Z,67.90
2023-02-23T13:14:44.125Z,68.20
2023-02-23T13:17:32.947Z,69.00
2023-02-23T13:20:07.704Z,67.60
2023-02-23T13:22:41.920Z,63.50
2023-02-23T13:25:22.925Z,65.20
2023-02-23T13:27:56.666Z,64.50
2023-02-23T13:30:25.055Z,62.80
2023-02-23T13:32:55.967Z,64.00
2023-02-23T13:35:25.510Z,65.50
2023-02-23T13:37:56.999Z,65.50
2023-02-23T13:40:32.688Z,64.50
2023-02-23T13:43:17.699Z,64.90
2023-02-23T13:46:00.379Z,66.60
2023-02-23T13:48:57.300Z,66.10
2023-02-23T13:51:36.641Z,65.50
2023-02-23T13:54:08.273Z,66.30
2023-02-23T13:56:44.010Z,65.60
2023-02-23T13:59:19.465Z,64.50
2023-02-23T14:01:54.212Z,62.60
2023-02-23T14:04:38.211Z,62.50
2023-02-23T14:07:28.741Z,61.80
2023-02-23T14:10:20.502Z,61.30
2023-02-23T14:13:24.755Z,62.40
2023-02-23T14:16:17.983Z,62.60
2023-02-23T14:19:15.606Z,59.60
2023-02-23T14:22:03.674Z,59.30
2023-02-23T14:24:32.472Z,60.60
2023-02-23T14:27:41.035Z,58.20
2023-02-23T14:30:27.840Z,60.70
2023-02-23T14:33:36.341Z,58.70
2023-02-23T14:36:37.794Z,59.20
2023-02-23T14:39:26.957Z,60.80
2023-02-23T14:42:10.334Z,60.30
2023-02-23T14:44:55.177Z,58.40
2023-02-23T14:47:47.864Z,57.50
2023-02-23T14:50:32.764Z,58.90
2023-02-23T14:53:19.048Z,58.00
2023-02-23T14:56:03.771Z,59.30
2023-02-23T14:58:52.056Z,60.00
2023-02-23T15:01:37.546Z,60.00
2023-02-23T15:04:23.730Z,59.80
2023-02-23T15:07:16.879Z,59.30
2023-02-23T15:10:02.234Z,59.60
2023-02-23T15:12:48.227Z,59.90
2023-02-23T15:15:23.650Z,60.70
2023-02-23T15:18:06.850Z,60.60
2023-02-23T15:20:51.330Z,59.30
2023-02-23T15:23:37.706Z,58.40
2023-02-23T15:26:31.959Z,59.60
2023-02-23T15:29:18.687Z,59.90
2023-02-23T15:32:16.031Z,59.60
2023-02-23T15:35:04.918Z,61.80
2023-02-23T15:37:59.416Z,62.70
2023-02-23T15:40:58.529Z,63.70
2023-02-23T15:43:43.947Z,63.50
2023-02-23T15:46:30.261Z,63.60
2023-02-23T15:49:17.293Z,62.30
2023-02-23T15:52:03.351Z,62.70
2023-02-23T15:54:35.724Z,62.70
2023-02-23T15:57:07.413Z,62.50
2023-02-23T15:59:38.125Z,63.80
2023-02-23T16:02:17.948Z,63.90
2023-02-23T16:04:49.780Z,64.80
2023-02-23T16:07:20.361Z,65.10
2023-02-23T16:09:51.183Z,64.60
2023-02-23T16:12:23.415Z,64.70
2023-02-23T16:14:55.154Z,63.60
2023-02-23T16:17:29.354Z,63.10
2023-02-23T16:20:11.337Z,63.10
2023-02-23T16:22:43.137Z,63.10
2023-02-23T16:25:15.478Z,62.90
2023-02-23T16:27:45.029Z,63.40
2023-02-23T16:30:24.062Z,64.40
2023-02-23T16:33:08.259Z,64.10
2023-02-23T16:35:42.793Z,64.70
2023-02-23T16:38:14.738Z,67.10
2023-02-23T16:40:43.236Z,65.50
2023-02-23T16:43:11.622Z,63.90
2023-02-23T16:45:43.161Z,63.30
2023-02-23T16:48:15.475Z,63.00
2023-02-23T16:50:45.583Z,63.40
2023-02-23T16:53:14.374Z,64.40
2023-02-23T16:55:55.252Z,64.40
2023-02-23T16:58:26.095Z,64.70
2023-02-23T17:00:54.779Z,65.20
2023-02-23T17:03:26.313Z,64.70
2023-02-23T17:05:55.563Z,64.40
2023-02-23T17:08:26.100Z,64.70
2023-02-23T17:10:55.901Z,64.10
2023-02-23T17:13:26.725Z,64.80
2023-02-23T17:15:56.446Z,65.60
2023-02-23T17:18:27.507Z,66.80
2023-02-23T17:20:57.291Z,67.90
2023-02-23T17:23:27.110Z,68.30
2023-02-23T17:25:55.785Z,68.20
2023-02-23T17:28:25.786Z,68.10
2023-02-23T17:30:54.136Z,68.20
2023-02-23T17:33:23.289Z,67.40
2023-02-23T17:35:52.915Z,66.60
2023-02-23T17:38:21.658Z,65.20
2023-02-23T17:40:50.128Z,65.60
2023-02-23T17:43:20.834Z,65.50
2023-02-23T17:45:49.882Z,65.50
2023-02-23T17:48:18.591Z,65.40
2023-02-23T17:50:46.946Z,66.00
2023-02-23T17:53:16.594Z,66.60
2023-02-23T17:55:46.485Z,67.80
2023-02-23T17:58:15.029Z,66.60
2023-02-23T18:00:43.302Z,67.10
2023-02-23T18:03:11.622Z,66.80
2023-02-23T18:05:39.854Z,66.50
2023-02-23T18:08:08.410Z,66.40
2023-02-23T18:10:38.273Z,66.10
2023-02-23T18:13:07.095Z,65.00
2023-02-23T18:15:35.621Z,64.50
2023-02-23T18:18:04.049Z,64.20
2023-02-23T18:20:32.622Z,64.20
2023-02-23T18:23:00.937Z,64.90
2023-02-23T18:25:30.643Z,65.90
2023-02-23T18:28:00.269Z,66.30
2023-02-23T18:30:28.505Z,66.70
2023-02-23T18:33:00.347Z,67.20
2023-02-23T18:35:35.917Z,67.40
2023-02-23T18:38:04.304Z,68.40
2023-02-23T18:40:32.661Z,68.80
2023-02-23T18:43:02.918Z,68.90
2023-02-23T18:45:34.786Z,68.40
2023-02-23T18:48:03.046Z,68.00
2023-02-23T18:50:31.939Z,67.70
2023-02-23T18:53:05.092Z,67.70
2023-02-23T18:55:33.590Z,68.90
2023-02-23T18:58:05.031Z,69.30
2023-02-23T19:00:40.024Z,68.80
2023-02-23T19:03:10.098Z,68.60
2023-02-23T19:05:38.583Z,67.70
2023-02-23T19:08:08.502Z,66.80
2023-02-23T19:10:37.844Z,67.30
2023-02-23T19:13:09.249Z,67.90
2023-02-23T19:15:38.047Z,68.50
2023-02-23T19:18:06.553Z,69.20
2023-02-23T19:20:35.893Z,69.80
2023-02-23T19:23:04.535Z,69.70
2023-02-23T19:25:34.443Z,68.70
2023-02-23T19:28:03.394Z,69.10
2023-02-23T19:30:33.846Z,69.50
2023-02-23T19:33:03.915Z,70.50
2023-02-23T19:35:33.028Z,70.10
2023-02-23T19:38:03.836Z,70.10
2023-02-23T19:40:32.311Z,70.50
2023-02-23T19:43:00.769Z,70.00
2023-02-23T19:45:29.880Z,69.90
2023-02-23T19:47:59.639Z,68.80
2023-02-23T19:50:33.052Z,68.80
2023-02-23T19:53:01.380Z,69.00
2023-02-23T19:55:30.246Z,68.50
2023-02-23T19:57:58.825Z,68.40
2023-02-23T20:00:27.173Z,68.70
2023-02-23T20:03:06.162Z,68.80
2023-02-23T20:05:42.176Z,68.70
2023-02-23T20:08:11.097Z,68.30
2023-02-23T20:10:42.509Z,68.00
2023-02-23T20:13:11.680Z,68.30
2023-02-23T20:15:47.009Z,67.50
2023-02-23T20:18:17.087Z,67.30
2023-02-23T20:20:47.499Z,67.30
2023-02-23T20:23:18.289Z,67.90
2023-02-23T20:25:46.628Z,67.30
2023-02-23T20:28:15.849Z,67.90
2023-02-23T20:30:48.214Z,66.90
2023-02-23T20:33:18.398Z,66.70
2023-02-23T20:35:47.220Z,67.50
2023-02-23T20:38:16.199Z,67.50
2023-02-23T20:40:44.673Z,68.00
2023-02-23T20:43:13.224Z,67.80
2023-02-23T20:45:42.200Z,67.70
2023-02-23T20:48:11.094Z,67.40
2023-02-23T20:50:42.482Z,68.00
2023-02-23T20:53:10.903Z,67.70
2023-02-23T20:55:39.228Z,67.80
2023-02-23T20:58:07.486Z,68.10
2023-02-23T21:00:36.183Z,68.40
2023-02-23T21:03:05.190Z,68.70
2023-02-23T21:05:39.017Z,69.10
2023-02-23T21:08:10.851Z,69.10
2023-02-23T21:10:41.213Z,68.80
2023-02-23T21:13:11.472Z,68.70
2023-02-23T21:15:41.565Z,68.60
2023-02-23T21:18:10.542Z,68.80
2023-02-23T21:20:39.910Z,68.30
2023-02-23T21:23:09.726Z,67.30
2023-02-23T21:25:39.010Z,67.40
2023-02-23T21:28:07.393Z,67.60
2023-02-23T21:30:35.809Z,68.00
2023-02-23T21:33:04.778Z,67.00
2023-02-23T21:35:35.171Z,67.60
2023-02-23T21:38:04.309Z,67.20
2023-02-23T21:40:33.899Z,67.30
2023-02-23T21:43:06.634Z,67.50
2023-02-23T21:45:34.899Z,69.20
2023-02-23T21:48:04.508Z,69.80
2023-02-23T21:50:32.747Z,70.60
2023-02-23T21:53:02.883Z,70.90
2023-02-23T21:55:31.324Z,70.10
2023-02-23T21:58:00.894Z,69.90
2023-02-23T22:00:31.020Z,69.90
2023-02-23T22:02:59.399Z,69.90
2023-02-23T22:05:27.853Z,69.10
2023-02-23T22:07:57.882Z,69.20
2023-02-23T22:10:26.553Z,69.20
2023-02-23T22:12:56.679Z,68.90
2023-02-23T22:15:28.208Z,68.70
2023-02-23T22:17:57.349Z,68.20
2023-02-23T22:20:26.398Z,68.00
2023-02-23T22:22:54.614Z,67.70
2023-02-23T22:25:26.064Z,67.60
2023-02-23T22:27:54.405Z,67.70
2023-02-23T22:30:22.802Z,67.20
2023-02-23T22:32:52.535Z,67.00
2023-02-23T22:35:21.096Z,66.40
2023-02-23T22:37:49.261Z,65.60
2023-02-23T22:40:19.592Z,66.10
2023-02-23T22:42:49.074Z,66.30
2023-02-23T22:45:17.977Z,66.20
2023-02-23T22:47:46.403Z,66.20
2023-02-23T22:50:17.903Z,66.60
2023-02-23T22:52:47.881Z,66.30
2023-02-23T22:55:16.303Z,66.10
2023-02-23T22:57:46.075Z,66.40
2023-02-23T23:00:19.255Z,66.60
2023-02-23T23:02:48.277Z,66.60
2023-02-23T23:05:18.780Z,66.60
2023-02-23T23:07:47.772Z,66.90
2023-02-23T23:10:17.499Z,67.30
2023-02-23T23:12:46.483Z,68.20
2023-02-23T23:15:17.417Z,68.20
2023-02-23T23:17:48.443Z,68.10
2023-02-23T23:20:23.006Z,67.80
2023-02-23T23:22:51.866Z,67.80
2023-02-23T23:25:22.842Z,67.50
2023-02-23T23:27:53.794Z,67.50
2023-02-23T23:30:25.966Z,67.60
2023-02-23T23:32:54.461Z,66.90
2023-02-23T23:35:25.994Z,66.80
2023-02-23T23:37:54.917Z,67.30
2023-02-23T23:40:25.270Z,66.90
2023-02-23T23:42:55.764Z,67.60
2023-02-23T23:45:25.995Z,67.30
2023-02-23T23:47:55.303Z,67.30
2023-02-23T23:50:27.471Z,67.60
2023-02-23T23:52:57.041Z,67.60
2023-02-23T23:55:31.171Z,68.30
2023-02-23T23:58:00.190Z,67.60
